createdAt,value
2023-03-19T00:02:24.216Z,2.50
2023-03-19T00:04:52.112Z,1.93
2023-03-19T00:07:20.037Z,2.40
2023-03-19T00:09:48.519Z,2.13
2023-03-19T00:12:17.872Z,2.03
2023-03-19T00:14:45.908Z,2.97
2023-03-19T00:17:13.813Z,2.47
2023-03-19T00:19:41.746Z,5.03
2023-03-19T00:22:09.844Z,3.60
2023-03-19T00:24:37.757Z,3.90
2023-03-19T00:27:05.835Z,3.10
2023-03-19T00:29:35.310Z,2.27
2023-03-19T00:32:03.546Z,2.37
2023-03-19T00:34:31.505Z,2.50
2023-03-19T00:36:59.400Z,3.67
2023-03-19T00:39:27.307Z,3.00
2023-03-19T00:41:57.052Z,2.53
2023-03-19T00:44:25.301Z,3.13
2023-03-19T00:46:54.766Z,4.10
2023-03-19T00:49:25.734Z,3.63
2023-03-19T00:51:56.353Z,3.10
2023-03-19T00:54:24.291Z,3.00
2023-03-19T00:56:52.177Z,3.60
2023-03-19T00:59:20.132Z,3.10
2023-03-19T01:01:48.118Z,2.90
2023-03-19T01:04:17.859Z,2.57
2023-03-19T01:06:45.917Z,2.67
2023-03-19T01:09:13.819Z,2.97
2023-03-19T01:11:41.762Z,2.40
2023-03-19T01:14:09.779Z,2.70
2023-03-19T01:16:37.680Z,2.77
2023-03-19T01:19:06.203Z,1.80
2023-03-19T01:21:36.715Z,2.70
2023-03-19T01:24:04.704Z,2.50
2023-03-19T01:26:32.646Z,2.20
2023-03-19T01:29:00.576Z,2.07
2023-03-19T01:31:28.631Z,2.37
2023-03-19T01:33:56.548Z,2.13
2023-03-19T01:36:24.798Z,2.10
2023-03-19T01:38:54.128Z,1.80
2023-03-19T01:41:22.703Z,2.63
2023-03-19T01:43:51.001Z,2.10
2023-03-19T01:46:25.266Z,2.77
2023-03-19T01:48:54.065Z,2.53
2023-03-19T01:51:26.374Z,2.00
2023-03-19T01:53:58.780Z,2.97
2023-03-19T01:56:29.046Z,2.17
2023-03-19T01:58:58.198Z,2.17
2023-03-19T02:01:27.089Z,2.50
2023-03-19T02:03:55.133Z,2.50
2023-03-19T02:06:23.425Z,2.80
2023-03-19T02:08:52.693Z,2.33
2023-03-19T02:11:22.437Z,2.77
2023-03-19T02:13:50.349Z,2.33
2023-03-19T02:16:18.309Z,2.40
2023-03-19T02:18:46.382Z,2.57
2023-03-19T02:21:16.338Z,2.10
2023-03-19T02:23:47.049Z,2.67
2023-03-19T02:26:16.810Z,2.27
2023-03-19T02:28:45.714Z,2.03
2023-03-19T02:31:14.101Z,2.00
2023-03-19T02:33:42.108Z,1.90
2023-03-19T02:36:12.199Z,3.20
2023-03-19T02:38:42.035Z,2.40
2023-03-19T02:41:10.536Z,2.53
2023-03-19T02:43:42.367Z,2.60
2023-03-19T02:46:13.262Z,2.50
2023-03-19T02:48:41.472Z,2.10
2023-03-19T02:51:09.944Z,1.80
2023-03-19T02:53:37.890Z,2.23
2023-03-19T02:56:06.166Z,2.20
2023-03-19T02:58:34.077Z,1.90
2023-03-19T03:01:03.436Z,2.07
2023-03-19T03:03:31.833Z,2.40
2023-03-19T03:05:59.780Z,2.37
2023-03-19T03:08:28.369Z,2.40
2023-03-19T03:10:56.312Z,2.50
2023-03-19T03:13:24.218Z,2.90
2023-03-19T03:15:53.651Z,3.07
2023-03-19T03:18:23.035Z,2.30
2023-03-19T03:20:50.972Z,2.83
2023-03-19T03:23:18.829Z,2.40
2023-03-19T03:25:46.816Z,2.10
2023-03-19T03:28:14.820Z,2.50
2023-03-19T03:30:42.821Z,2.00
2023-03-19T03:33:11.004Z,2.33
2023-03-19T03:35:40.385Z,2.27
2023-03-19T03:38:08.276Z,2.33
2023-03-19T03:40:37.026Z,2.00
2023-03-19T03:43:04.970Z,2.20
2023-03-19T03:45:33.540Z,2.53
2023-03-19T03:48:01.491Z,2.20
2023-03-19T03:50:29.448Z,2.27
2023-03-19T03:52:58.770Z,2.60
2023-03-19T03:55:28.407Z,1.93
2023-03-19T03:57:56.349Z,2.33
2023-03-19T04:00:24.271Z,2.43
2023-03-19T04:02:52.258Z,2.00
2023-03-19T04:05:20.413Z,2.13
2023-03-19T04:07:48.342Z,2.07
2023-03-19T04:10:17.726Z,1.90
2023-03-19T04:12:46.126Z,2.40
2023-03-19T04:15:14.672Z,2.67
2023-03-19T04:17:42.579Z,2.10
2023-03-19T04:20:11.285Z,2.50
2023-03-19T04:22:39.252Z,2.00
2023-03-19T04:25:08.497Z,2.37
2023-03-19T04:27:37.967Z,2.00
2023-03-19T04:30:06.180Z,2.03
2023-03-19T04:32:35.776Z,2.10
2023-03-19T04:35:04.333Z,1.90
2023-03-19T04:37:32.254Z,2.30
2023-03-19T04:40:00.326Z,2.27
2023-03-19T04:42:28.344Z,1.97
2023-03-19T04:44:57.777Z,2.10
2023-03-19T04:47:25.734Z,3.03
2023-03-19T04:49:53.668Z,2.40
2023-03-19T04:52:21.574Z,2.23
2023-03-19T04:54:49.489Z,4.03
2023-03-19T04:57:17.384Z,2.37
2023-03-19T04:59:45.227Z,2.13
2023-03-19T05:02:14.645Z,2.10
2023-03-19T05:04:42.577Z,2.53
2023-03-19T05:07:10.602Z,2.20
2023-03-19T05:09:38.526Z,2.30
2023-03-19T05:12:06.983Z,2.57
2023-03-19T05:14:34.888Z,2.67
2023-03-19T05:17:03.080Z,2.87
2023-03-19T05:19:32.832Z,2.20
2023-03-19T05:22:00.790Z,2.50
2023-03-19T05:24:28.712Z,2.57
2023-03-19T05:26:57.349Z,2.87
2023-03-19T05:29:26.290Z,2.40
2023-03-19T05:31:54.272Z,2.27
2023-03-19T05:34:22.350Z,2.63
2023-03-19T05:36:51.933Z,2.60
2023-03-19T05:39:19.859Z,2.27
2023-03-19T05:41:48.067Z,2.97
2023-03-19T05:44:15.992Z,2.57
2023-03-19T05:46:44.656Z,2.20
2023-03-19T05:49:12.596Z,2.40
2023-03-19T05:51:40.664Z,2.67
2023-03-19T05:54:09.983Z,2.23
2023-03-19T05:56:38.048Z,2.20
2023-03-19T05:59:06.803Z,2.40
2023-03-19T06:01:34.976Z,2.37
2023-03-19T06:04:05.565Z,2.67
2023-03-19T06:06:34.111Z,2.07
2023-03-19T06:09:02.018Z,2.00
2023-03-19T06:11:32.094Z,2.30
2023-03-19T06:14:00.001Z,2.20
2023-03-19T06:16:28.460Z,2.73
2023-03-19T06:18:57.745Z,2.40
2023-03-19T06:21:30.599Z,2.57
2023-03-19T06:23:58.623Z,2.40
2023-03-19T06:26:26.876Z,2.40
2023-03-19T06:28:56.292Z,2.30
2023-03-19T06:31:24.276Z,2.20
2023-03-19T06:33:52.367Z,2.73
2023-03-19T06:36:20.412Z,2.70
2023-03-19T06:38:48.334Z,2.57
2023-03-19T06:41:16.532Z,2.33
2023-03-19T06:43:44.478Z,2.93
2023-03-19T06:46:13.876Z,2.70
2023-03-19T06:48:42.127Z,2.23
2023-03-19T06:51:10.045Z,2.43
2023-03-19T06:53:38.004Z,2.00
2023-03-19T06:56:06.225Z,2.67
2023-03-19T06:58:35.493Z,1.87
2023-03-19T07:01:03.775Z,2.47
2023-03-19T07:03:33.161Z,2.10
2023-03-19T07:06:01.127Z,2.63
2023-03-19T07:08:30.087Z,2.27
2023-03-19T07:10:58.456Z,2.97
2023-03-19T07:13:26.672Z,2.60
2023-03-19T07:15:54.788Z,3.20
2023-03-19T07:18:22.794Z,2.80
2023-03-19T07:20:53.089Z,3.00
2023-03-19T07:23:20.992Z,2.77
2023-03-19T07:25:48.856Z,2.90
2023-03-19T07:28:16.829Z,2.40
2023-03-19T07:30:44.935Z,2.60
2023-03-19T07:33:12.876Z,2.67
2023-03-19T07:35:40.828Z,2.43
2023-03-19T07:38:10.200Z,2.30
2023-03-19T07:40:40.036Z,2.63
2023-03-19T07:43:11.328Z,2.33
2023-03-19T07:45:39.370Z,2.37
2023-03-19T07:48:07.577Z,2.17
2023-03-19T07:50:35.818Z,2.23
2023-03-19T07:53:03.879Z,2.80
2023-03-19T07:55:33.226Z,1.97
2023-03-19T07:58:01.261Z,2.33
2023-03-19T08:00:29.264Z,1.90
2023-03-19T08:02:57.172Z,2.20
2023-03-19T08:05:25.095Z,2.40
2023-03-19T08:07:53.029Z,2.33
2023-03-19T08:10:21.025Z,2.07
2023-03-19T08:12:50.363Z,2.03
2023-03-19T08:15:18.366Z,2.50
2023-03-19T08:17:46.291Z,2.60
2023-03-19T08:20:16.496Z,2.47
2023-03-19T08:22:44.458Z,2.20
2023-03-19T08:25:12.496Z,2.27
2023-03-19T08:27:40.519Z,2.17
2023-03-19T08:30:11.599Z,2.30
2023-03-19T08:32:39.511Z,2.07
2023-03-19T08:35:07.996Z,2.17
2023-03-19T08:37:35.883Z,2.30
2023-03-19T08:40:04.433Z,2.30
2023-03-19T08:42:32.345Z,1.80
2023-03-19T08:45:00.366Z,2.13
2023-03-19T08:47:29.642Z,2.80
2023-03-19T08:49:57.503Z,2.50
2023-03-19T08:52:25.700Z,2.20
2023-03-19T08:54:53.612Z,2.00
2023-03-19T08:57:21.493Z,1.83
2023-03-19T08:59:49.403Z,2.30
2023-03-19T09:02:17.360Z,2.07
2023-03-19T09:04:47.138Z,2.30
2023-03-19T09:07:16.067Z,2.63
2023-03-19T09:09:44.277Z,1.93
2023-03-19T09:12:13.434Z,2.20
2023-03-19T09:14:41.502Z,2.00
2023-03-19T09:17:09.568Z,1.80
2023-03-19T09:19:38.191Z,1.90
2023-03-19T09:22:07.555Z,4.00
2023-03-19T09:24:35.740Z,1.93
2023-03-19T09:27:03.707Z,2.30
2023-03-19T09:29:31.613Z,1.70
2023-03-19T09:32:00.874Z,1.97
2023-03-19T09:34:28.895Z,2.00
2023-03-19T09:36:56.910Z,2.17
2023-03-19T09:39:26.429Z,2.17
2023-03-19T09:42:01.376Z,2.20
2023-03-19T09:44:30.197Z,2.10
2023-03-19T09:46:59.860Z,1.83
2023-03-19T09:49:29.676Z,1.67
2023-03-19T09:51:59.620Z,1.97
2023-03-19T09:54:31.296Z,2.07
2023-03-19T09:56:59.525Z,1.67
2023-03-19T09:59:28.498Z,1.83
2023-03-19T10:02:00.409Z,2.13
2023-03-19T10:04:42.661Z,2.10
2023-03-19T10:07:20.745Z,1.87
2023-03-19T10:09:56.236Z,2.47
2023-03-19T10:12:30.648Z,1.90
2023-03-19T10:15:22.365Z,1.70
2023-03-19T10:17:59.362Z,2.30
2023-03-19T10:20:32.541Z,2.10
2023-03-19T10:23:04.778Z,1.70
2023-03-19T10:25:34.983Z,2.10
2023-03-19T10:28:08.973Z,2.10
2023-03-19T10:30:37.350Z,1.70
2023-03-19T10:33:11.206Z,1.67
2023-03-19T10:35:41.162Z,1.60
2023-03-19T10:38:16.797Z,1.57
2023-03-19T10:40:50.167Z,1.93
2023-03-19T10:43:19.223Z,2.20
2023-03-19T10:45:49.339Z,1.80
2023-03-19T10:48:18.121Z,1.60
2023-03-19T10:50:50.928Z,1.80
2023-03-19T10:53:29.699Z,2.13
2023-03-19T10:56:02.092Z,1.87
2023-03-19T10:58:31.153Z,1.80
2023-03-19T11:01:00.080Z,2.00
2023-03-19T11:03:32.379Z,1.60
2023-03-19T11:06:18.607Z,1.77
2023-03-19T11:08:51.612Z,1.70
2023-03-19T11:11:28.822Z,1.60
2023-03-19T11:13:57.280Z,1.80
2023-03-19T11:16:25.503Z,2.30
2023-03-19T11:18:53.721Z,1.50
2023-03-19T11:21:25.960Z,1.40
2023-03-19T11:23:54.327Z,1.90
2023-03-19T11:26:24.697Z,1.70
2023-03-19T11:28:54.865Z,4.77
2023-03-19T11:31:29.130Z,1.80
2023-03-19T11:34:06.685Z,1.47
2023-03-19T11:36:38.246Z,1.57
2023-03-19T11:39:14.852Z,2.07
2023-03-19T11:41:50.921Z,1.67
2023-03-19T11:44:22.909Z,1.57
2023-03-19T11:46:55.927Z,2.20
2023-03-19T11:49:53.995Z,1.90
2023-03-19T11:52:24.750Z,1.60
2023-03-19T11:54:59.141Z,1.60
2023-03-19T11:57:33.978Z,1.70
2023-03-19T12:00:10.872Z,1.40
2023-03-19T12:02:47.183Z,1.57
2023-03-19T12:05:19.912Z,2.10
2023-03-19T12:07:51.494Z,1.90
2023-03-19T12:10:29.026Z,1.43
2023-03-19T12:13:01.852Z,1.40
2023-03-19T12:15:34.823Z,1.57
2023-03-19T12:18:09.270Z,1.40
2023-03-19T12:20:40.745Z,1.33
2023-03-19T12:23:13.759Z,1.53
2023-03-19T12:25:45.743Z,1.30
2023-03-19T12:28:19.582Z,1.70
2023-03-19T12:30:50.810Z,1.40
2023-03-19T12:33:25.861Z,1.83
2023-03-19T12:35:56.542Z,1.57
2023-03-19T12:38:25.768Z,1.63
2023-03-19T12:40:54.328Z,1.30
2023-03-19T12:43:26.332Z,1.10
2023-03-19T12:45:58.380Z,1.50
2023-03-19T12:48:29.230Z,0.93
2023-03-19T12:51:01.104Z,0.87
2023-03-19T12:53:32.544Z,1.10
2023-03-19T12:56:03.656Z,1.27
2023-03-19T12:58:39.008Z,1.40
2023-03-19T13:01:12.583Z,1.00
2023-03-19T13:03:44.756Z,1.40
2023-03-19T13:06:17.516Z,1.20
2023-03-19T13:08:48.629Z,1.23
2023-03-19T13:11:18.975Z,1.30
2023-03-19T13:13:49.736Z,1.70
2023-03-19T13:16:30.218Z,1.07
2023-03-19T13:19:03.984Z,1.10
2023-03-19T13:21:33.509Z,1.27
2023-03-19T13:24:06.230Z,1.20
2023-03-19T13:26:35.229Z,0.70
2023-03-19T13:29:04.000Z,0.90
2023-03-19T13:31:37.183Z,1.00
2023-03-19T13:34:05.934Z,0.90
2023-03-19T13:36:38.212Z,0.90
2023-03-19T13:39:12.907Z,1.10
2023-03-19T13:41:54.986Z,1.10
2023-03-19T13:44:33.890Z,1.00
2023-03-19T13:47:04.442Z,1.00
2023-03-19T13:49:35.915Z,1.30
2023-03-19T13:52:18.646Z,1.07
2023-03-19T13:54:47.768Z,0.80
2023-03-19T13:57:20.840Z,0.80
2023-03-19T13:59:50.109Z,1.00
2023-03-19T14:02:37.109Z,1.17
2023-03-19T14:05:11.000Z,1.30
2023-03-19T14:07:40.525Z,1.23
2023-03-19T14:10:09.803Z,1.00
2023-03-19T14:12:38.585Z,1.30
2023-03-19T14:15:18.096Z,1.17
2023-03-19T14:17:47.354Z,1.10
2023-03-19T14:20:32.088Z,1.00
2023-03-19T14:23:25.142Z,1.00
2023-03-19T14:26:16.680Z,1.03
2023-03-19T14:28:49.734Z,1.13
2023-03-19T14:31:38.987Z,1.00
2023-03-19T14:34:13.974Z,0.93
2023-03-19T14:36:45.559Z,1.00
2023-03-19T14:39:18.234Z,0.90
2023-03-19T14:41:47.772Z,0.70
2023-03-19T14:44:30.936Z,1.07
2023-03-19T14:47:05.877Z,0.90
2023-03-19T14:49:52.203Z,1.00
2023-03-19T14:52:40.986Z,1.00
2023-03-19T14:55:10.849Z,1.00
2023-03-19T14:57:38.707Z,0.70
2023-03-19T15:00:10.061Z,0.90
2023-03-19T15:02:38.931Z,1.00
2023-03-19T15:05:08.800Z,1.10
2023-03-19T15:07:39.770Z,0.80
2023-03-19T15:10:09.117Z,0.70
2023-03-19T15:12:44.018Z,1.10
2023-03-19T15:15:22.641Z,0.90
2023-03-19T15:18:03.142Z,0.73
2023-03-19T15:20:34.451Z,1.00
2023-03-19T15:23:11.030Z,1.00
2023-03-19T15:25:48.410Z,0.77
2023-03-19T15:28:17.124Z,1.00
2023-03-19T15:30:54.962Z,2.10
2023-03-19T15:33:40.192Z,1.00
2023-03-19T15:36:10.402Z,0.70
2023-03-19T15:38:41.494Z,1.20
2023-03-19T15:41:10.165Z,1.07
2023-03-19T15:43:39.689Z,0.63
2023-03-19T15:46:08.508Z,1.00
2023-03-19T15:48:38.096Z,0.80
2023-03-19T15:51:08.217Z,0.87
2023-03-19T15:53:36.787Z,0.93
2023-03-19T15:56:06.915Z,0.80
2023-03-19T15:58:39.436Z,0.80
2023-03-19T16:01:09.193Z,0.80
2023-03-19T16:03:39.066Z,1.20
2023-03-19T16:06:08.014Z,0.70
2023-03-19T16:08:36.326Z,1.40
2023-03-19T16:11:15.713Z,0.90
2023-03-19T16:13:48.016Z,0.73
2023-03-19T16:16:18.296Z,0.57
2023-03-19T16:18:50.752Z,0.80
2023-03-19T16:21:19.249Z,1.00
2023-03-19T16:23:51.289Z,0.87
2023-03-19T16:26:25.159Z,0.77
2023-03-19T16:28:58.067Z,0.77
2023-03-19T16:31:28.917Z,0.60
2023-03-19T16:33:57.174Z,0.90
2023-03-19T16:36:28.787Z,0.80
2023-03-19T16:38:58.478Z,0.80
2023-03-19T16:41:32.507Z,0.97
2023-03-19T16:44:11.630Z,0.90
2023-03-19T16:46:39.615Z,0.87
2023-03-19T16:49:07.545Z,0.77
2023-03-19T16:51:35.780Z,0.87
2023-03-19T16:54:03.941Z,1.00
2023-03-19T16:56:33.312Z,1.00
2023-03-19T16:59:03.002Z,1.97
2023-03-19T17:01:31.056Z,1.00
2023-03-19T17:03:59.119Z,1.70
2023-03-19T17:06:29.587Z,1.40
2023-03-19T17:08:57.513Z,1.40
2023-03-19T17:11:28.362Z,1.53
2023-03-19T17:13:58.678Z,1.17
2023-03-19T17:16:27.494Z,1.87
2023-03-19T17:18:56.009Z,1.60
2023-03-19T17:21:26.340Z,1.30
2023-03-19T17:23:54.955Z,1.57
2023-03-19T17:26:25.928Z,1.90
2023-03-19T17:28:54.581Z,1.33
2023-03-19T17:31:25.286Z,1.40
2023-03-19T17:33:55.856Z,1.10
2023-03-19T17:36:23.775Z,1.10
2023-03-19T17:38:53.604Z,1.13
2023-03-19T17:41:23.009Z,1.63
2023-03-19T17:43:50.976Z,3.63
2023-03-19T17:46:20.287Z,3.37
2023-03-19T17:48:51.067Z,3.87
2023-03-19T17:51:19.242Z,2.57
2023-03-19T17:53:49.254Z,2.10
2023-03-19T17:56:18.134Z,2.33
2023-03-19T17:58:46.813Z,2.10
2023-03-19T18:01:17.022Z,2.13
2023-03-19T18:03:45.044Z,1.83
2023-03-19T18:06:17.255Z,1.80
2023-03-19T18:08:45.380Z,1.77
2023-03-19T18:11:13.685Z,2.03
2023-03-19T18:13:41.713Z,1.80
2023-03-19T18:16:15.849Z,1.57
2023-03-19T18:18:43.872Z,1.70
2023-03-19T18:21:14.577Z,1.40
2023-03-19T18:23:44.680Z,1.87
2023-03-19T18:26:12.896Z,1.63
2023-03-19T18:28:40.936Z,1.40
2023-03-19T18:31:12.916Z,1.60
2023-03-19T18:33:40.930Z,2.00
2023-03-19T18:36:09.177Z,2.43
2023-03-19T18:38:37.139Z,2.53
2023-03-19T18:41:06.550Z,3.30
2023-03-19T18:43:34.457Z,2.53
2023-03-19T18:46:02.583Z,2.70
2023-03-19T18:48:32.361Z,1.97
2023-03-19T18:51:00.307Z,2.63
2023-03-19T18:53:29.585Z,3.77
2023-03-19T18:55:57.685Z,4.83
2023-03-19T18:58:29.318Z,3.63
2023-03-19T19:00:57.338Z,3.83
2023-03-19T19:03:29.515Z,3.07
2023-03-19T19:05:57.499Z,3.03
2023-03-19T19:08:27.021Z,2.60
2023-03-19T19:10:56.059Z,3.37
2023-03-19T19:13:26.071Z,2.80
2023-03-19T19:15:55.688Z,3.43
2023-03-19T19:18:25.023Z,2.70
2023-03-19T19:20:54.063Z,3.23
2023-03-19T19:23:22.726Z,3.23
2023-03-19T19:25:51.230Z,3.13
2023-03-19T19:28:21.421Z,4.33
2023-03-19T19:30:49.942Z,4.87
2023-03-19T19:33:20.555Z,4.30
2023-03-19T19:35:48.522Z,3.47
2023-03-19T19:38:16.703Z,3.63
2023-03-19T19:40:45.964Z,3.63
2023-03-19T19:43:18.210Z,3.53
2023-03-19T19:45:47.447Z,3.50
2023-03-19T19:48:16.977Z,2.90
2023-03-19T19:50:46.976Z,2.33
2023-03-19T19:53:15.180Z,2.13
2023-03-19T19:55:43.603Z,2.07
2023-03-19T19:58:18.126Z,1.77
2023-03-19T20:00:56.700Z,2.00
2023-03-19T20:03:32.354Z,1.77
2023-03-19T20:06:02.080Z,2.47
2023-03-19T20:08:29.991Z,2.20
2023-03-19T20:10:58.406Z,2.00
2023-03-19T20:13:27.837Z,2.40
2023-03-19T20:15:57.133Z,2.73
2023-03-19T20:18:29.768Z,2.70
2023-03-19T20:20:59.614Z,2.50
2023-03-19T20:23:29.032Z,2.57
2023-03-19T20:25:58.309Z,2.27
2023-03-19T20:28:27.671Z,2.50
2023-03-19T20:30:56.532Z,2.93
2023-03-19T20:33:24.486Z,3.10
2023-03-19T20:35:52.568Z,2.50
2023-03-19T20:38:20.613Z,2.13
2023-03-19T20:40:51.274Z,2.30
2023-03-19T20:43:26.119Z,2.70
2023-03-19T20:45:56.756Z,2.00
2023-03-19T20:48:24.830Z,2.67
2023-03-19T20:50:52.856Z,1.80
2023-03-19T20:53:20.806Z,1.80
2023-03-19T20:55:50.394Z,2.30
2023-03-19T20:58:22.131Z,1.80
2023-03-19T21:00:50.049Z,1.97
2023-03-19T21:03:19.613Z,2.43
2023-03-19T21:05:47.962Z,2.03
2023-03-19T21:08:17.049Z,2.30
2023-03-19T21:10:45.654Z,2.60
2023-03-19T21:13:15.902Z,2.70
2023-03-19T21:15:44.237Z,2.60
2023-03-19T21:18:12.164Z,2.40
2023-03-19T21:20:42.676Z,3.00
2023-03-19T21:23:16.053Z,2.40
2023-03-19T21:25:44.381Z,2.90
2023-03-19T21:28:14.544Z,3.23
2023-03-19T21:30:44.693Z,2.60
2023-03-19T21:33:20.011Z,3.30
2023-03-19T21:35:48.047Z,3.13
2023-03-19T21:38:15.978Z,2.90
2023-03-19T21:40:44.021Z,3.20
2023-03-19T21:43:16.476Z,3.10
2023-03-19T21:45:45.971Z,2.83
2023-03-19T21:48:23.200Z,3.50
2023-03-19T21:50:52.038Z,3.80
2023-03-19T21:53:20.467Z,3.30
2023-03-19T21:55:48.568Z,3.13
2023-03-19T21:58:17.539Z,3.37
2023-03-19T22:00:47.494Z,3.00
2023-03-19T22:03:17.799Z,3.23
2023-03-19T22:05:45.870Z,2.73
2023-03-19T22:08:16.118Z,2.83
2023-03-19T22:10:44.742Z,3.07
2023-03-19T22:13:17.865Z,2.77
2023-03-19T22:15:47.253Z,3.03
2023-03-19T22:18:15.855Z,3.17
2023-03-19T22:20:44.027Z,2.67
2023-03-19T22:23:12.349Z,3.00
2023-03-19T22:25:42.327Z,3.20
2023-03-19T22:28:14.773Z,3.13
2023-03-19T22:30:42.882Z,3.43
2023-03-19T22:33:14.858Z,3.00
2023-03-19T22:35:43.000Z,3.47
2023-03-19T22:38:10.908Z,3.30
2023-03-19T22:40:39.451Z,3.27
2023-03-19T22:43:15.337Z,2.87
2023-03-19T22:45:43.323Z,3.43
2023-03-19T22:48:14.589Z,3.37
2023-03-19T22:50:42.955Z,3.53
2023-03-19T22:53:20.868Z,2.97
2023-03-19T22:55:48.767Z,3.30
2023-03-19T22:58:16.798Z,3.93
2023-03-19T23:00:44.739Z,3.10
2023-03-19T23:03:17.957Z,4.20
2023-03-19T23:05:47.165Z,4.00
2023-03-19T23:08:17.642Z,5.30
2023-03-19T23:10:45.909Z,5.30
2023-03-19T23:13:14.046Z,5.00
2023-03-19T23:15:42.526Z,5.30
2023-03-19T23:18:19.392Z,5.43
2023-03-19T23:20:47.924Z,4.70
2023-03-19T23:23:16.782Z,4.03
2023-03-19T23:25:45.174Z,4.20
2023-03-19T23:28:17.704Z,3.90
2023-03-19T23:30:46.548Z,2.93
2023-03-19T23:33:14.983Z,3.10
2023-03-19T23:35:45.059Z,2.60
2023-03-19T23:38:13.340Z,2.40
2023-03-19T23:40:44.228Z,2.60
2023-03-19T23:43:17.692Z,1.97
2023-03-19T23:45:46.957Z,1.93
2023-03-19T23:48:16.143Z,1.80
2023-03-19T23:50:47.071Z,2.13
2023-03-19T23:53:19.825Z,1.93
2023-03-19T23:55:48.461Z,1.70
2023-03-19T23:58:17.103Z,1.50
